Data for 08/02/2010

Time Sea-Level Adjusted Pressure Absolute Pressure Temperature Relative Humidity Dew Point   
(mb) (inHg) (mb) (inHg) (C) (F) (%) (C) (F)
00:05 1018 30.06 847 25.01 16.2 61.1 67 10.1 50.1
00:10 1018 30.06 847 25.01 16.1 61 66 9.9 49.8
00:15 1018 30.06 847 25.01 16.3 61.3 64 9.4 48.9
00:20 1018 30.06 847 25.01 16.3 61.4 64 9.5 49.1
00:25 1018 30.06 847 25.01 16 60.7 63 9.1 48.3
00:30 1018 30.06 847 25.01 16.2 61.1 63 9.1 48.4
00:35 1018 30.06 847 25.01 16.3 61.3 63 9.3 48.7
00:40 1018 30.06 848 25.04 16.3 61.4 61 8.8 47.8
00:45 1018 30.06 848 25.04 16.4 61.5 60 8.6 47.5
00:50 1018 30.06 848 25.04 16.4 61.6 59 8.6 47.5
00:55 1019 30.09 848 25.04 16.4 61.5 59 8.5 47.3
01:00 1019 30.09 848 25.04 16.4 61.6 59 8.5 47.2
01:05 1019 30.09 848 25.04 16.4 61.4 59 8.4 47.2
01:10 1019 30.09 848 25.04 16.4 61.6 57 8 46.4
01:15 1019 30.09 848 25.04 16.9 62.5 53 7.5 45.5
01:20 1019 30.09 848 25.04 17.3 63.2 53 7.8 46
01:25 1019 30.09 848 25.04 17.2 62.9 55 8 46.5
01:30 1019 30.09 848 25.04 17 62.5 54 7.8 46
01:35 1019 30.09 848 25.04 16.8 62.3 55 7.8 46.1
01:40 1019 30.09 848 25.04 16.6 61.9 57 8.2 46.7
01:45 1019 30.09 848 25.04 16.3 61.3 58 8.1 46.5
01:50 1019 30.09 848 25.04 16.3 61.4 56 7.7 45.9
01:55 1019 30.09 848 25.04 16.3 61.3 57 8 46.3
02:00 1019 30.09 848 25.04 16.1 61 57 7.8 46
02:05 1019 30.09 848 25.04 16.2 61.1 58 8 46.4
02:10 1019 30.09 848 25.04 16.1 61 57 7.7 45.9
02:15 1019 30.09 849 25.07 16.2 61.1 56 7.6 45.7
02:20 1019 30.09 849 25.07 16.3 61.3 56 7.6 45.6
02:25 1019 30.09 849 25.07 16.3 61.4 58 8.1 46.5
02:30 1020 30.12 849 25.07 16.1 61 56 7.6 45.6
02:35 1020 30.12 849 25.07 16.1 61 60 8.4 47.1
02:40 1020 30.12 849 25.07 15.9 60.7 59 8 46.5
02:45 1020 30.12 849 25.07 15.5 60 59 7.7 45.9
02:50 1020 30.12 849 25.07 15.6 60.1 60 8 46.3
02:55 1020 30.12 849 25.07 15.5 59.8 61 8.1 46.5
03:00 1020 30.12 849 25.07 15.4 59.8 61 7.9 46.3
03:05 1020 30.12 849 25.07 15.5 59.9 61 8.1 46.5
03:10 1020 30.12 849 25.07 15.3 59.6 61 7.9 46.3
03:15 1020 30.12 849 25.07 15.1 59.2 62 8 46.4
03:20 1020 30.12 849 25.07 15 58.9 63 8.1 46.7
03:25 1020 30.12 849 25.07 14.8 58.6 64 8.2 46.8
03:30 1020 30.12 849 25.07 14.6 58.2 65 8.1 46.6
03:35 1020 30.12 849 25.07 14.5 58.2 65 8.2 46.7
03:40 1020 30.12 849 25.07 14.4 57.8 67 8.3 46.9
03:45 1020 30.12 849 25.07 14.2 57.6 67 8.2 46.8
03:50 1020 30.12 849 25.07 14.2 57.5 66 8.1 46.5
03:55 1020 30.12 849 25.07 14.3 57.7 66 8 46.4
04:00 1020 30.12 849 25.07 14.3 57.8 64 7.6 45.7
04:05 1020 30.12 849 25.07 14.5 58.1 64 7.8 46.1
04:10 1020 30.12 849 25.07 14.3 57.7 64 7.7 45.9
04:15 1020 30.12 849 25.07 14 57.3 66 7.8 46
04:20 1020 30.12 849 25.07 13.7 56.7 66 7.5 45.6
04:25 1020 30.12 849 25.07 13.6 56.4 67 7.7 45.8
04:30 1020 30.12 849 25.07 13.4 56.1 66 7.3 45.1
04:35 1020 30.12 849 25.07 13.5 56.3 66 7.3 45.2
04:40 1020 30.12 849 25.07 13.3 56 68 7.6 45.6
04:45 1020 30.12 849 25.07 13 55.5 67 7.2 45
04:50 1020 30.12 849 25.07 13.3 55.9 66 7.1 44.8
04:55 1020 30.12 849 25.07 13.5 56.3 65 7 44.6
05:00 1020 30.12 849 25.07 13.4 56.1 66 7.2 44.9
05:05 1020 30.12 850 25.1 13.2 55.8 66 7.2 44.9
05:10 1020 30.12 850 25.1 13 55.5 67 7.1 44.7
05:15 1020 30.12 850 25.1 13.1 55.5 67 7.1 44.7
05:20 1020 30.12 850 25.1 13.2 55.7 65 6.9 44.4
05:25 1020 30.12 850 25.1 13.1 55.6 67 7.2 44.9
05:30 1020 30.12 850 25.1 12.9 55.3 69 7.4 45.3
05:35 1020 30.12 850 25.1 12.7 54.8 71 7.5 45.5
05:40 1020 30.12 850 25.1 12.4 54.3 72 7.4 45.4
05:45 1020 30.12 850 25.1 12.1 53.8 72 7.2 44.9
05:50 1021 30.15 850 25.1 12.1 53.7 73 7.4 45.3
05:55 1021 30.15 850 25.1 11.9 53.3 74 7.4 45.4
06:00 1021 30.15 850 25.1 11.9 53.4 74 7.5 45.5
06:05 1021 30.15 850 25.1 12 53.6 74 7.5 45.4
06:10 1021 30.15 850 25.1 12.2 53.9 72 7.2 45
06:15 1021 30.15 850 25.1 12.5 54.4 70 7.3 45.1
06:20 1021 30.15 850 25.1 12.5 54.5 69 7.1 44.7
06:25 1021 30.15 850 25.1 12.6 54.6 69 7.1 44.8
06:30 1021 30.15 850 25.1 12.4 54.4 69 7 44.6
06:35 1021 30.15 850 25.1 12.6 54.6 69 7.1 44.7
06:40 1021 30.15 850 25.1 12.7 54.8 68 7 44.5
06:45 1021 30.15 850 25.1 12.8 55.1 67 7 44.6
06:50 1021 30.15 850 25.1 12.9 55.2 67 7.1 44.7
06:55 1021 30.15 850 25.1 13.1 55.5 66 6.8 44.3
07:00 1021 30.15 850 25.1 13.2 55.8 66 7 44.6
07:05 1021 30.15 850 25.1 12.9 55.3 67 6.9 44.5
07:10 1021 30.15 850 25.1 12.9 55.2 68 7.1 44.8
07:15 1021 30.15 850 25.1 13 55.4 67 7.1 44.7
07:20 1021 30.15 850 25.1 13 55.5 68 7.3 45.1
07:25 1021 30.15 850 25.1 13.1 55.5 67 7.2 44.9
07:30 1021 30.15 850 25.1 13.2 55.7 65 6.8 44.3
07:35 1021 30.15 850 25.1 13.6 56.4 63 6.8 44.2
07:40 1021 30.15 850 25.1 14.2 57.5 62 7.1 44.8
07:45 1021 30.15 850 25.1 14.6 58.3 61 7.2 44.9
07:50 1021 30.15 850 25.1 14.8 58.6 60 7.2 44.9
07:55 1021 30.15 850 25.1 15 58.9 59 7.2 44.9
08:00 1021 30.15 850 25.1 15.3 59.5 59 7.4 45.3
08:05 1021 30.15 850 25.1 15.8 60.4 59 7.9 46.3
08:10 1021 30.15 851 25.13 16.1 61 56 7.4 45.3
08:15 1021 30.15 851 25.13 16.5 61.8 55 7.7 45.8
08:20 1021 30.15 851 25.13 17.5 63.4 52 7.5 45.5
08:25 1021 30.15 851 25.13 18.2 64.8 51 8.2 46.7
08:30 1021 30.15 851 25.13 17.7 63.9 55 8.6 47.4
08:35 1021 30.15 851 25.13 17.4 63.3 53 8 46.3
08:40 1021 30.15 851 25.13 17.6 63.7 51 7.6 45.6
08:45 1021 30.15 851 25.13 18.2 64.7 50 7.6 45.7
08:50 1021 30.15 851 25.13 18.7 65.6 50 8 46.5
08:55 1021 30.15 851 25.13 18.3 64.9 51 8.1 46.7
09:00 1021 30.15 851 25.13 18.3 64.9 51 8.2 46.7
09:05 1022 30.18 851 25.13 18.7 65.7 50 8.1 46.6
09:10 1022 30.18 851 25.13 19.1 66.4 49 8.4 47.1
09:15 1022 30.18 851 25.13 19.5 67 48 8.3 47
09:20 1022 30.18 851 25.13 19.9 67.9 46 8 46.5
09:25 1022 30.18 851 25.13 20.2 68.3 47 8.5 47.3
09:30 1022 30.18 851 25.13 20.4 68.6 44 7.9 46.2
09:35 1022 30.18 851 25.13 20.6 69 46 8.7 47.6
09:40 1022 30.18 851 25.13 20.3 68.5 45 8.2 46.8
09:45 1022 30.18 851 25.13 20.4 68.8 46 8.5 47.2
09:50 1022 30.18 851 25.13 20.6 69.1 44 8.2 46.7
09:55 1022 30.18 851 25.13 20.3 68.5 46 8.5 47.3
10:00 1022 30.18 851 25.13 20.9 69.7 44 8.3 46.9
10:05 1022 30.18 851 25.13 21.1 70 44 8.5 47.2
10:10 1022 30.18 851 25.13 21.1 69.9 45 8.7 47.6
10:15 1022 30.18 851 25.13 21.4 70.6 43 8.5 47.2
10:20 1022 30.18 851 25.13 21.7 71.1 41 8.2 46.8
10:25 1022 30.18 851 25.13 21.6 70.9 43 8.5 47.3
10:30 1022 30.18 851 25.13 21.6 70.9 45 9.4 48.9
10:35 1022 30.18 851 25.13 21.8 71.3 43 8.9 48.1
10:40 1022 30.18 851 25.13 21.5 70.7 43 8.5 47.3
10:45 1022 30.18 851 25.13 21.7 71.1 43 8.9 48.1
10:50 1022 30.18 851 25.13 22.1 71.9 40 8.1 46.5
10:55 1022 30.18 851 25.13 22.8 73 36 7.3 45.2
11:00 1022 30.18 851 25.13 21.9 71.4 42 8.7 47.6
11:05 1022 30.18 851 25.13 21.5 70.7 43 8.7 47.7
11:10 1022 30.18 851 25.13 21.8 71.3 38 7.2 45
11:15 1022 30.18 851 25.13 22.7 72.9 35 6.6 43.9
11:20 1022 30.18 851 25.13 23 73.3 36 7.4 45.3
11:25 1022 30.18 851 25.13 23 73.4 35 6.9 44.4
11:30 1022 30.18 851 25.13 22.4 72.2 38 7.4 45.3
11:35 1022 30.18 851 25.13 22.9 73.2 35 6.7 44.1
11:40 1022 30.18 851 25.13 22.4 72.3 38 7.5 45.5
11:45 1022 30.18 851 25.13 22.1 71.9 38 7.4 45.2
11:50 1021 30.15 851 25.13 22.1 71.7 37 6.9 44.5
11:55 1021 30.15 851 25.13 23.1 73.5 33 6.2 43.2
12:00 1021 30.15 851 25.13 23.4 74.1 33 6.4 43.5
12:05 1021 30.15 851 25.13 23.9 75 33 6.7 44
12:10 1021 30.15 851 25.13 23.8 74.9 34 7.2 44.9
12:15 1021 30.15 851 25.13 22.6 72.6 38 7.7 45.8
12:20 1021 30.15 851 25.13 22.7 72.9 35 6.5 43.8
12:25 1021 30.15 851 25.13 23.7 74.7 34 7.1 44.8
12:30 1021 30.15 851 25.13 24 75.3 33 6.8 44.3
12:35 1021 30.15 851 25.13 24 75.2 34 7.3 45.2
12:40 1021 30.15 851 25.13 24.2 75.5 33 7.3 45.1
12:45 1021 30.15 850 25.1 23.6 74.4 33 6.4 43.6
12:50 1021 30.15 850 25.1 24.7 76.5 31 6.8 44.3
12:55 1021 30.15 850 25.1 24.4 76 36 8.6 47.6
13:00 1021 30.15 850 25.1 23.5 74.3 35 7.5 45.6
13:05 1021 30.15 850 25.1 23.3 73.9 34 6.6 43.9
13:10 1021 30.15 850 25.1 23.8 74.9 34 7.2 45
13:15 1021 30.15 850 25.1 24.2 75.5 31 6.1 43
13:20 1021 30.15 850 25.1 24.5 76 31 6.6 43.9
13:25 1021 30.15 850 25.1 24.1 75.3 32 6.6 43.8
13:30 1021 30.15 850 25.1 25 77.1 29 6.2 43.2
13:35 1021 30.15 850 25.1 25.3 77.6 30 6.8 44.2
13:40 1021 30.15 850 25.1 25.4 77.7 29 6.1 43
13:45 1021 30.15 850 25.1 25 76.9 30 6.6 43.9
13:50 1021 30.15 850 25.1 25.1 77.2 28 5.5 41.9
13:55 1021 30.15 850 25.1 25.7 78.3 28 5.9 42.6
14:00 1021 30.15 850 25.1 26.1 79 27 6.1 43.1
14:05 1021 30.15 850 25.1 26.2 79.1 28 6.5 43.6
14:10 1021 30.15 850 25.1 26 78.7 28 6.5 43.7
14:15 1021 30.15 850 25.1 25.7 78.3 28 6.1 43.1
14:20 1021 30.15 850 25.1 26.2 79.1 27 6.1 43
14:25 1021 30.15 850 25.1 26 78.7 28 6.4 43.5
14:30 1021 30.15 850 25.1 25.1 77.3 29 6.3 43.4
14:35 1021 30.15 850 25.1 25.1 77.1 28 5.5 42
14:40 1021 30.15 850 25.1 25.5 78 29 6.3 43.3
14:45 1021 30.15 850 25.1 26.2 79.1 28 6.5 43.7
14:50 1020 30.12 850 25.1 25.9 78.5 28 6.2 43.2
14:55 1020 30.12 850 25.1 25.5 77.8 29 6.2 43.1
15:00 1020 30.12 850 25.1 25.9 78.6 26 5 41
15:05 1020 30.12 849 25.07 26.6 79.8 26 5.5 41.9
15:10 1020 30.12 849 25.07 26.7 80.1 26 5.8 42.5
15:15 1020 30.12 849 25.07 26.7 80 27 6.4 43.5
15:20 1020 30.12 849 25.07 26.8 80.3 25 5.2 41.4
15:25 1020 30.12 849 25.07 27 80.6 25 5.8 42.5
15:30 1020 30.12 849 25.07 27.3 81.1 25 5.9 42.6
15:35 1020 30.12 849 25.07 27.3 81.1 24 5.1 41.2
15:40 1020 30.12 849 25.07 27 80.6 24 5.2 41.3
15:45 1020 30.12 849 25.07 27.1 80.7 23 4.4 40
15:50 1020 30.12 849 25.07 27.1 80.7 23 4.2 39.6
15:55 1020 30.12 849 25.07 27.3 81.1 23 4.7 40.4
16:00 1020 30.12 849 25.07 27.3 81.1 22 4.1 39.3
16:05 1020 30.12 849 25.07 27.3 81.1 22 4.1 39.5
16:10 1020 30.12 849 25.07 27.2 80.9 23 4.5 40.1
16:15 1020 30.12 849 25.07 27.1 80.8 23 4.3 39.7
16:20 1020 30.12 849 25.07 27.6 81.7 25 6.3 43.4
16:25 1020 30.12 849 25.07 27.6 81.6 20 3 37.4
16:30 1020 30.12 849 25.07 27.6 81.6 21 3.5 38.3
16:35 1020 30.12 849 25.07 27.4 81.4 21 3.3 38
16:40 1020 30.12 849 25.07 27 80.7 22 3.8 38.8
16:45 1020 30.12 849 25.07 27.3 81.2 21 3.5 38.4
16:50 1020 30.12 849 25.07 27.2 80.9 22 3.9 39
16:55 1020 30.12 849 25.07 27.5 81.4 20 2.8 37
17:00 1020 30.12 849 25.07 27.9 82.2 20 3.4 38.2
17:05 1020 30.12 849 25.07 27.5 81.5 21 3.5 38.3
17:10 1020 30.12 849 25.07 27.3 81.2 21 3.2 37.8
17:15 1020 30.12 849 25.07 27.6 81.6 20 2.7 36.9
17:20 1019 30.09 849 25.07 27.8 82 21 3.6 38.5
17:25 1019 30.09 849 25.07 27.5 81.5 21 3.5 38.4
17:30 1019 30.09 849 25.07 27.4 81.3 21 3.5 38.4
17:35 1019 30.09 849 25.07 27.7 81.9 20 2.9 37.2
17:40 1019 30.09 849 25.07 28.2 82.8 19 3 37.4
17:45 1019 30.09 849 25.07 27.8 82 19 2.6 36.6
17:50 1019 30.09 849 25.07 28.1 82.6 19 2.8 37
17:55 1019 30.09 849 25.07 28.1 82.5 20 3.1 37.5
18:00 1019 30.09 848 25.04 27.7 81.8 19 2.3 36.1
18:05 1019 30.09 848 25.04 27.5 81.5 20 2.5 36.5
18:10 1019 30.09 848 25.04 27.4 81.4 19 1.8 35.2
18:15 1019 30.09 848 25.04 27 80.6 20 2.6 36.7
18:20 1019 30.09 848 25.04 27 80.7 19 2 35.7
18:25 1019 30.09 848 25.04 27.4 81.3 20 2.5 36.4
18:30 1019 30.09 848 25.04 27.2 81 19 2.2 36
18:35 1019 30.09 848 25.04 27.2 81 21 3 37.4
18:40 1019 30.09 848 25.04 27.2 80.9 21 3 37.4
18:45 1019 30.09 848 25.04 27 80.5 20 2.4 36.3
18:50 1019 30.09 848 25.04 26.6 79.9 21 2.7 36.9
18:55 1019 30.09 848 25.04 26.4 79.6 20 2.3 36.1
19:00 1019 30.09 848 25.04 26 78.9 22 2.7 36.9
19:05 1019 30.09 848 25.04 25.9 78.6 22 2.6 36.8
19:10 1019 30.09 848 25.04 25.8 78.4 21 2.1 35.7
19:15 1019 30.09 848 25.04 25.7 78.3 22 2.4 36.3
19:20 1019 30.09 848 25.04 25.9 78.5 21 2.1 35.8
19:25 1019 30.09 848 25.04 25.9 78.6 21 2.1 35.8
19:30 1019 30.09 848 25.04 25.9 78.6 21 2 35.6
19:35 1019 30.09 848 25.04 25.8 78.5 21 2 35.5
19:40 1019 30.09 848 25.04 25.6 78.2 21 2 35.6
19:45 1019 30.09 848 25.04 25.5 77.9 22 2.4 36.2
19:50 1019 30.09 848 25.04 25.4 77.6 23 2.7 36.9
19:55 1019 30.09 848 25.04 25.2 77.4 21 1.6 34.9
20:00 1019 30.09 848 25.04 25.1 77.2 21 1.2 34.2
20:05 1019 30.09 848 25.04 25.2 77.3 20 1.2 34.2
20:10 1019 30.09 848 25.04 25.2 77.4 21 1.4 34.5
20:15 1019 30.09 848 25.04 25.2 77.3 22 2.5 36.5
20:20 1019 30.09 848 25.04 25.1 77.2 21 1.6 34.9
20:25 1019 30.09 848 25.04 25 77 24 3.2 37.8
20:30 1019 30.09 848 25.04 24.9 76.7 28 5.3 41.5
20:35 1019 30.09 848 25.04 24.2 75.6 32 6.9 44.4
20:40 1019 30.09 848 25.04 23.5 74.3 39 8.8 47.9
20:45 1019 30.09 848 25.04 22.7 72.9 39 8.1 46.6
20:50 1019 30.09 849 25.07 21.6 70.9 40 7.7 45.9
20:55 1019 30.09 849 25.07 20.8 69.5 43 8 46.5
21:00 1019 30.09 849 25.07 20.6 69.1 42 7.3 45.1
21:05 1019 30.09 849 25.07 20.4 68.7 46 8.5 47.2
21:10 1019 30.09 849 25.07 19.9 67.8 44 7.4 45.3
21:15 1020 30.12 849 25.07 19.7 67.4 46 7.9 46.2
21:20 1020 30.12 849 25.07 19.2 66.6 48 8 46.4
21:25 1020 30.12 849 25.07 18.9 65.9 48 7.8 46
21:30 1020 30.12 849 25.07 18.9 65.9 45 6.7 44
21:35 1020 30.12 849 25.07 18.9 66.1 43 6.2 43.1
21:40 1020 30.12 849 25.07 19.2 66.5 44 6.7 44
21:45 1020 30.12 849 25.07 19.1 66.3 42 6.1 43
21:50 1020 30.12 849 25.07 19.2 66.6 42 6.3 43.3
21:55 1020 30.12 849 25.07 19 66.2 45 7 44.7
22:00 1020 30.12 849 25.07 19.1 66.5 43 6.4 43.5
22:05 1020 30.12 849 25.07 19.1 66.4 43 6.4 43.6
22:10 1020 30.12 850 25.1 19.3 66.7 42 6.3 43.3
22:15 1020 30.12 850 25.1 18.9 66 43 6.1 43
22:20 1021 30.15 850 25.1 19 66.1 39 4.7 40.5
22:25 1021 30.15 850 25.1 19.5 67 38 4.9 40.9
22:30 1021 30.15 850 25.1 19.5 67 38 4.9 40.8
22:35 1021 30.15 850 25.1 19.5 67.1 39 5.3 41.6
22:40 1021 30.15 850 25.1 19.2 66.6 42 6.1 43
22:45 1020 30.12 850 25.1 18.7 65.7 42 5.7 42.3
22:50 1020 30.12 850 25.1 19 66.2 41 5.4 41.8
22:55 1020 30.12 849 25.07 19.1 66.4 38 4.7 40.4
23:00 1020 30.12 849 25.07 19.7 67.5 33 3.3 37.9
23:05 1020 30.12 849 25.07 20.2 68.3 33 3.3 38
23:10 1020 30.12 849 25.07 20.7 69.2 31 3.3 38
23:15 1020 30.12 850 25.1 20.4 68.7 34 4.2 39.6
23:20 1020 30.12 850 25.1 20 68 34 4 39.2
23:25 1021 30.15 850 25.1 20.1 68.2 33 3.5 38.3
23:30 1021 30.15 850 25.1 20.3 68.5 33 3.7 38.6
23:35 1021 30.15 850 25.1 20.3 68.6 33 3.9 38.9
23:40 1021 30.15 850 25.1 20.3 68.5 34 3.9 39
23:45 1021 30.15 850 25.1 20.3 68.6 33 3.7 38.7
23:50 1020 30.12 850 25.1 20.4 68.7 33 3.6 38.6
23:55 1020 30.12 850 25.1 20.5 68.8 33 3.8 38.8
24:00 1021 30.15 850 25.1 20.4 68.7 33 3.8 38.8